Time;durP1;ratioP1;P1;durP2;ratioP2;P2;SDS_P1;SDS_P2;PMS_P1;PMS_P2;Temp;Humidity;BMP_temperature;BMP_pressure;BME280_temperature;BME280_humidity;BME280_pressure;Samples;Min_cycle;Max_cycle;Signal;HPM_P1;HPM_P2
2022/03/22 00:00:44;;;;;;;8.98;6.00;;;7.20;36.40;;;5.88;36.71;97341.59;4945938;28;20043;-62
2022/03/22 00:03:10;;;;;;;8.70;6.00;;;7.20;36.40;;;5.83;36.88;97344.59;4986385;28;20116;-63
2022/03/22 00:05:40;;;;;;;12.25;6.50;;;7.10;36.80;;;5.81;36.46;97343.91;4970145;28;20544;-62
2022/03/22 00:08:06;;;;;;;9.20;5.93;;;7.10;37.40;;;5.78;37.40;97341.56;4972945;28;20034;-62
2022/03/22 00:10:32;;;;;;;10.30;6.35;;;7.10;37.80;;;5.72;37.89;97336.84;4978346;28;20038;-62
2022/03/22 00:12:58;;;;;;;9.93;6.22;;;7.00;38.90;;;5.62;37.49;97334.16;4980272;28;20554;-62
2022/03/22 00:15:24;;;;;;;10.80;5.63;;;6.80;39.60;;;5.53;37.82;97338.38;4969680;28;20054;-62
2022/03/22 00:17:50;;;;;;;10.95;5.72;;;6.70;40.10;;;5.44;38.75;97341.75;4980693;28;20076;-62
2022/03/22 00:20:16;;;;;;;10.77;6.65;;;6.60;40.30;;;5.39;38.53;97341.28;4980131;28;20569;-62
2022/03/22 00:22:42;;;;;;;10.60;6.05;;;6.60;40.70;;;5.33;38.46;97340.97;4979373;28;20108;-62
2022/03/22 00:25:09;;;;;;;13.60;6.32;;;6.60;40.10;;;5.25;39.07;97344.22;4954391;28;20352;-62
2022/03/22 00:30:30;;;;;;;12.02;5.90;;;6.50;39.30;;;5.14;38.94;97329.44;4992337;28;20561;-62
2022/03/22 00:32:57;;;;;;;11.15;6.35;;;6.50;38.80;;;5.12;38.37;97328.72;4956588;28;20030;-62
2022/03/22 00:35:24;;;;;;;9.02;6.00;;;6.50;38.40;;;5.11;38.21;97341.88;4966960;28;21966;-62
2022/03/22 00:37:54;;;;;;;10.10;5.93;;;6.50;38.60;;;5.08;38.94;97331.72;4972275;28;20022;-62
2022/03/22 00:40:21;;;;;;;10.85;6.03;;;6.50;38.40;;;5.06;38.92;97329.22;4987491;28;20447;-63
2022/03/22 00:42:47;;;;;;;10.80;5.70;;;6.40;38.70;;;5.04;38.01;97335.53;4963661;28;20030;-62
2022/03/22 00:45:16;;;;;;;8.63;5.38;;;6.40;38.30;;;5.01;38.80;97331.41;4985332;28;20035;-62
2022/03/22 00:47:47;;;;;;;9.57;5.60;;;6.40;38.20;;;4.99;38.62;97333.31;4984632;28;20415;-62
2022/03/22 00:50:14;;;;;;;10.77;5.75;;;6.30;38.10;;;4.97;38.48;97329.13;4970169;28;20042;-62
2022/03/22 00:52:40;;;;;;;9.32;6.13;;;6.30;38.40;;;4.95;37.94;97331.03;4975561;28;20042;-62
2022/03/22 00:55:07;;;;;;;9.30;5.97;;;6.30;38.40;;;4.90;38.40;97334.84;4961490;28;20038;-62
2022/03/22 00:57:36;;;;;;;11.57;5.47;;;6.20;38.30;;;4.87;38.01;97329.88;4953230;28;20376;-61
2022/03/22 01:00:07;;;;;;;8.80;5.55;;;6.20;38.30;;;4.85;38.39;97326.56;4967728;28;20038;-62
2022/03/22 01:02:44;;;;;;;9.10;5.60;;;6.20;38.50;;;4.85;39.66;97334.41;4950237;28;20030;-62
2022/03/22 01:05:13;;;;;;;6.90;5.35;;;6.30;38.70;;;4.83;38.54;97338.91;4978103;28;20074;-62
2022/03/22 01:07:41;;;;;;;8.80;5.85;;;6.20;38.90;;;4.80;39.24;97336.56;4973559;28;20034;-62
2022/03/22 01:10:10;;;;;;;9.48;5.78;;;6.10;39.40;;;4.74;38.57;97337.00;4971604;28;20038;-62
2022/03/22 01:12:37;;;;;;;9.27;5.85;;;6.10;39.90;;;4.68;39.05;97329.69;4976898;28;20039;-62
2022/03/22 01:15:04;;;;;;;10.63;6.45;;;6.10;40.20;;;4.60;39.17;97332.91;4977319;28;20031;-62
2022/03/22 01:17:31;;;;;;;7.93;5.57;;;6.00;40.60;;;4.54;39.21;97335.19;4945375;28;20038;-62
2022/03/22 01:19:58;;;;;;;8.57;5.53;;;5.80;40.90;;;4.44;39.35;97331.63;4995814;28;20100;-62
2022/03/22 01:22:25;;;;;;;10.70;6.70;;;5.70;40.80;;;4.37;39.87;97331.31;4973129;28;20065;-62
2022/03/22 01:24:52;;;;;;;9.93;5.63;;;5.60;40.60;;;4.29;39.65;97329.28;4998038;28;20034;-61
2022/03/22 01:27:21;;;;;;;11.98;6.13;;;5.60;40.40;;;4.25;39.64;97332.25;4982548;28;20498;-62
2022/03/22 01:29:47;;;;;;;9.77;5.40;;;5.60;40.50;;;4.20;39.42;97324.78;4974984;28;20030;-62
2022/03/22 01:32:13;;;;;;;9.13;5.68;;;5.60;40.40;;;4.20;39.52;97318.75;4982919;28;20034;-62
2022/03/22 01:34:39;;;;;;;8.20;5.57;;;5.60;40.60;;;4.16;39.62;97323.38;4991724;28;20031;-62
2022/03/22 01:37:05;;;;;;;11.38;6.05;;;5.50;40.10;;;4.14;39.76;97319.25;4986527;28;20022;-62
2022/03/22 01:39:31;;;;;;;8.50;5.65;;;5.60;40.00;;;4.11;39.54;97319.47;4988813;28;20096;-62
2022/03/22 01:41:57;;;;;;;9.43;5.82;;;5.50;39.80;;;4.08;39.80;97312.75;4991681;28;20027;-62
2022/03/22 01:44:27;;;;;;;8.75;5.53;;;5.50;39.90;;;4.07;40.14;97312.84;4989923;28;20646;-62
2022/03/22 01:46:54;;;;;;;8.85;5.65;;;5.50;39.90;;;4.05;39.77;97310.34;4983311;28;20023;-61
2022/03/22 01:49:21;;;;;;;8.25;5.55;;;5.50;40.00;;;4.03;39.72;97312.25;4971353;28;20033;-62
2022/03/22 01:51:48;;;;;;;10.32;6.45;;;5.40;40.00;;;4.02;39.42;97310.59;4971339;28;20090;-62
2022/03/22 01:54:14;;;;;;;10.90;6.07;;;5.40;40.20;;;4.02;39.79;97315.78;4985183;28;20038;-62
2022/03/22 01:56:39;;;;;;;11.35;6.50;;;5.40;40.60;;;3.99;39.62;97311.66;4954658;28;20070;-62
2022/03/22 01:59:05;;;;;;;9.57;6.25;;;5.40;40.20;;;3.96;39.71;97305.88;4986628;28;20042;-62
2022/03/22 02:07:01;;;;;;;10.77;6.18;;;5.30;41.00;;;3.86;39.86;97304.94;4954887;28;20093;-62
2022/03/22 02:09:27;;;;;;;9.30;6.03;;;5.20;41.20;;;3.83;39.74;97310.34;4974356;28;20034;-62
2022/03/22 02:11:52;;;;;;;11.38;6.03;;;5.10;41.20;;;3.78;40.23;97312.47;4987432;28;20045;-62
2022/03/22 02:14:18;;;;;;;10.90;6.63;;;5.10;41.20;;;3.77;40.30;97310.81;4977174;28;20034;-62
2022/03/22 02:16:44;;;;;;;15.55;6.07;;;5.10;41.40;;;3.74;40.45;97305.84;4993007;28;20117;-62
2022/03/22 02:19:10;;;;;;;11.75;5.40;;;5.10;41.30;;;3.71;40.60;97296.50;4978527;28;21576;-62
2022/03/22 02:21:38;;;;;;;9.05;5.63;;;5.10;41.40;;;3.69;40.47;97304.44;4973810;28;20043;-62
2022/03/22 02:24:04;;;;;;;9.07;5.78;;;5.10;41.40;;;3.69;40.52;97298.41;4966061;28;20407;-61
2022/03/22 02:26:30;;;;;;;9.50;5.90;;;5.10;40.70;;;3.67;40.50;97292.50;4999728;28;20406;-61
2022/03/22 02:28:55;;;;;;;9.10;5.43;;;5.10;40.60;;;3.66;40.11;97288.22;4977481;28;20026;-62
2022/03/22 02:31:26;;;;;;;8.82;5.40;;;5.10;40.70;;;3.69;40.86;97283.63;4979723;28;20058;-62
2022/03/22 02:33:52;;;;;;;9.77;5.68;;;5.20;40.50;;;3.68;40.54;97297.56;4971922;28;20038;-62
2022/03/22 02:36:18;;;;;;;10.05;5.63;;;5.20;41.30;;;3.68;40.55;97307.97;4978260;28;20139;-61
2022/03/22 02:38:44;;;;;;;8.15;5.47;;;5.20;42.20;;;3.64;40.63;97301.34;4967653;28;20035;-62
2022/03/22 02:41:20;;;;;;;10.63;5.75;;;5.10;41.60;;;3.63;41.07;97294.50;4968656;28;20038;-61
2022/03/22 02:43:47;;;;;;;9.35;6.00;;;5.10;40.50;;;3.62;40.11;97303.25;4992732;28;20062;-62
2022/03/22 02:46:12;;;;;;;9.98;6.07;;;5.10;40.30;;;3.60;40.23;97302.50;4988222;28;20054;-62
2022/03/22 02:48:38;;;;;;;11.88;5.78;;;5.10;40.40;;;3.57;40.32;97307.94;4978301;28;20031;-62
2022/03/22 02:51:04;;;;;;;13.98;6.25;;;5.10;40.10;;;3.57;40.08;97302.75;4981095;28;20058;-62
2022/03/22 02:53:30;;;;;;;9.63;6.13;;;5.10;40.00;;;3.59;40.16;97302.63;4970060;28;20644;-62
2022/03/22 02:55:56;;;;;;;11.40;6.18;;;5.10;39.90;;;3.60;40.24;97310.31;4976809;28;20482;-62
2022/03/22 02:58:21;;;;;;;9.80;6.03;;;5.10;40.20;;;3.60;40.46;97310.31;4980541;28;20068;-62
2022/03/22 03:00:47;;;;;;;11.05;6.20;;;5.10;40.00;;;3.58;40.22;97307.00;4987787;28;20058;-62
2022/03/22 03:03:13;;;;;;;8.98;5.95;;;5.00;40.20;;;3.55;40.60;97316.81;4985055;28;20046;-62
2022/03/22 03:05:38;;;;;;;10.18;5.97;;;5.00;40.90;;;3.51;40.60;97305.81;4983662;28;20089;-62
2022/03/22 03:08:04;;;;;;;9.38;6.05;;;5.00;40.90;;;3.49;40.81;97312.09;4981762;28;20043;-62
2022/03/22 03:10:30;;;;;;;11.55;5.78;;;4.90;41.50;;;3.43;40.97;97308.19;4982790;28;20109;-62
2022/03/22 03:13:03;;;;;;;10.18;5.88;;;4.90;41.80;;;3.35;42.13;97318.31;4977606;28;20053;-62
2022/03/22 03:15:30;;;;;;;10.65;6.05;;;4.70;42.40;;;3.28;41.09;97309.31;4977208;28;20042;-61
2022/03/22 03:17:56;;;;;;;13.60;6.07;;;4.70;42.80;;;3.23;40.97;97311.44;4958712;28;20039;-61
2022/03/22 03:20:21;;;;;;;11.40;6.40;;;4.60;42.00;;;3.19;41.31;97315.22;4969963;28;20089;-61
2022/03/22 03:22:47;;;;;;;40.20;25.10;;;4.60;42.00;;;3.16;41.68;97320.59;4956395;28;20446;-62
2022/03/22 03:25:13;;;;;;;30.55;17.08;;;4.70;43.00;;;3.12;41.66;97319.19;4965425;28;20035;-61
2022/03/22 03:27:39;;;;;;;18.38;9.20;;;4.60;43.90;;;3.08;41.44;97319.41;4978513;28;20070;-61
2022/03/22 03:30:06;;;;;;;10.60;6.40;;;4.60;42.90;;;3.05;42.02;97314.44;4971563;28;20038;-61
2022/03/22 03:32:32;;;;;;;12.40;8.07;;;4.50;42.60;;;3.03;41.67;97315.50;4968360;28;20125;-61
2022/03/22 03:34:57;;;;;;;20.42;11.50;;;4.60;42.00;;;3.02;41.43;97319.88;4963697;28;20031;-61
2022/03/22 03:37:24;;;;;;;13.88;8.13;;;4.60;41.90;;;3.02;41.42;97309.47;4968974;28;20078;-61
2022/03/22 03:39:53;;;;;;;9.60;5.72;;;4.60;41.70;;;3.01;41.84;97313.00;4948199;28;20113;-61
2022/03/22 03:42:18;;;;;;;9.23;5.88;;;4.60;41.60;;;3.02;41.13;97325.06;4983172;28;20062;-62
2022/03/22 03:47:30;;;;;;;11.73;7.28;;;4.60;40.80;;;3.00;40.88;97326.13;4950947;28;20043;-64
2022/03/22 03:49:58;;;;;;;11.48;7.55;;;4.60;41.00;;;2.99;41.09;97330.50;4951603;28;20064;-61
2022/03/22 03:52:26;;;;;;;13.65;9.00;;;4.50;41.00;;;2.97;41.56;97332.38;4968025;28;20185;-62
2022/03/22 03:54:52;;;;;;;18.08;10.68;;;4.50;41.20;;;2.97;41.38;97326.34;4978654;28;20034;-61
2022/03/22 03:57:19;;;;;;;13.88;8.70;;;4.50;41.50;;;2.97;41.22;97332.38;4978637;28;20022;-62
2022/03/22 03:59:44;;;;;;;10.02;6.47;;;4.50;41.10;;;2.95;40.85;97329.06;4981623;28;20050;-62
2022/03/22 04:02:10;;;;;;;11.80;6.57;;;4.50;40.60;;;2.96;40.85;97333.31;4983191;28;20062;-62
2022/03/22 04:04:37;;;;;;;10.75;5.88;;;4.50;41.00;;;2.93;40.69;97330.91;4944289;28;20031;-62
2022/03/22 04:07:04;;;;;;;17.83;10.82;;;4.40;40.60;;;2.91;40.75;97340.59;4981290;28;20035;-63
2022/03/22 04:09:30;;;;;;;26.75;12.85;;;4.40;40.50;;;2.89;40.63;97345.06;4967708;28;20077;-62
2022/03/22 04:11:56;;;;;;;14.73;7.47;;;4.40;40.80;;;2.87;40.91;97333.97;4980996;28;20034;-62
2022/03/22 04:14:22;;;;;;;9.70;6.30;;;4.30;40.80;;;2.87;40.68;97333.13;4985497;28;20031;-62
2022/03/22 04:16:49;;;;;;;9.10;5.65;;;4.40;40.60;;;2.83;40.43;97329.09;4988358;28;20101;-62
2022/03/22 04:19:15;;;;;;;9.60;5.82;;;4.40;40.70;;;2.82;40.58;97332.66;4985525;28;20066;-63
2022/03/22 04:21:41;;;;;;;9.55;6.07;;;4.30;40.90;;;2.82;40.85;97325.69;4996775;28;20042;-62
2022/03/22 04:24:08;;;;;;;11.40;8.10;;;4.40;41.10;;;2.79;41.69;97333.69;4968331;28;20057;-62
2022/03/22 04:26:43;;;;;;;12.80;9.23;;;4.40;41.90;;;2.73;43.23;97334.16;4984234;28;20522;-62
2022/03/22 04:34:40;;;;;;;33.72;22.15;;;4.00;45.40;;;2.47;43.04;97342.00;4969042;28;20405;-62
2022/03/22 04:37:07;;;;;;;14.85;10.05;;;3.90;45.50;;;2.39;43.20;97339.13;4978691;28;20372;-62
2022/03/22 04:39:36;;;;;;;11.60;6.88;;;3.80;44.90;;;2.32;43.10;97337.06;4985817;28;20126;-62
2022/03/22 04:42:01;;;;;;;11.18;7.10;;;3.70;44.90;;;2.28;43.41;97333.88;4956905;28;20041;-62
2022/03/22 04:44:28;;;;;;;12.13;6.60;;;3.70;44.70;;;2.23;43.10;97338.53;4987380;28;20438;-62
2022/03/22 04:46:58;;;;;;;8.98;6.10;;;3.70;44.50;;;2.22;43.08;97334.28;4992556;28;20041;-63
2022/03/22 04:49:24;;;;;;;11.82;6.93;;;3.70;44.20;;;2.22;42.69;97344.66;4983577;28;20870;-62
2022/03/22 04:57:19;;;;;;;15.07;6.65;;;3.60;43.60;;;2.12;42.46;97348.84;4977705;28;20121;-61
2022/03/22 04:59:45;;;;;;;14.35;7.15;;;3.60;43.80;;;2.09;43.29;97349.88;4975997;28;20030;-62
2022/03/22 05:02:11;;;;;;;11.15;6.35;;;3.60;44.00;;;2.09;42.58;97352.47;4990353;28;20090;-62
2022/03/22 05:04:37;;;;;;;12.55;6.60;;;3.60;43.70;;;2.06;43.05;97344.91;4991063;28;20031;-62
2022/03/22 05:07:03;;;;;;;15.07;7.43;;;3.60;43.50;;;2.06;42.78;97338.91;4989817;28;20034;-62
2022/03/22 05:09:29;;;;;;;10.85;6.55;;;3.70;43.80;;;2.07;43.48;97340.56;4991117;28;20089;-61
2022/03/22 05:11:56;;;;;;;15.00;6.78;;;3.60;43.50;;;2.08;42.74;97347.41;4961077;28;20035;-61
2022/03/22 05:14:22;;;;;;;14.95;6.88;;;3.60;43.50;;;2.07;42.69;97343.16;4956762;28;20081;-61
2022/03/22 05:16:48;;;;;;;12.65;6.95;;;3.60;43.10;;;2.06;43.42;97349.28;4987273;28;20035;-61
2022/03/22 05:19:14;;;;;;;10.05;6.05;;;3.60;43.00;;;2.07;42.95;97353.53;4972517;28;20098;-61
2022/03/22 05:21:40;;;;;;;14.43;6.80;;;3.70;43.10;;;2.07;42.49;97350.94;4976199;28;20061;-62
2022/03/22 05:24:06;;;;;;;12.52;6.05;;;3.60;43.00;;;2.08;42.84;97353.41;4971910;28;20077;-61
2022/03/22 05:26:32;;;;;;;11.18;6.32;;;3.70;42.90;;;2.07;42.77;97356.13;4956324;28;20058;-61
2022/03/22 05:28:58;;;;;;;13.70;6.80;;;3.70;42.60;;;2.08;42.81;97356.03;4959371;28;20038;-61
2022/03/22 05:31:24;;;;;;;10.55;6.70;;;3.70;42.50;;;2.10;42.89;97358.50;4985170;28;20035;-61
2022/03/22 05:33:49;;;;;;;13.63;6.32;;;3.80;42.60;;;2.13;42.54;97355.69;4991810;28;20600;-61
2022/03/22 05:36:15;;;;;;;10.85;5.97;;;3.80;42.40;;;2.15;42.30;97351.22;4991435;28;20691;-61
2022/03/22 05:38:41;;;;;;;13.15;6.10;;;3.80;42.60;;;2.13;42.62;97351.34;4974494;28;20074;-61
2022/03/22 05:41:08;;;;;;;10.95;6.47;;;3.80;42.30;;;2.18;42.58;97352.78;4983165;28;20022;-60
2022/03/22 05:43:35;;;;;;;18.13;9.20;;;3.90;42.90;;;2.20;42.78;97358.69;4991811;28;20026;-62
2022/03/22 05:46:03;;;;;;;13.35;8.85;;;3.90;43.20;;;2.23;43.19;97361.91;4991355;28;20411;-61
2022/03/22 05:48:29;;;;;;;20.27;7.15;;;4.00;43.20;;;2.26;42.88;97361.69;4991710;28;20572;-61
2022/03/22 05:50:55;;;;;;;12.35;5.95;;;4.00;42.60;;;2.29;43.03;97356.31;4974638;28;20034;-60
2022/03/22 05:53:21;;;;;;;12.40;6.55;;;4.00;42.50;;;2.31;43.01;97364.81;4979460;28;20425;-61
2022/03/22 05:55:47;;;;;;;10.55;6.63;;;4.10;42.20;;;2.30;43.14;97368.34;4986797;28;20038;-61
2022/03/22 05:58:13;;;;;;;11.10;6.32;;;4.10;42.50;;;2.30;43.02;97368.34;4991469;28;20030;-61
2022/03/22 06:00:38;;;;;;;10.40;6.38;;;4.10;42.70;;;2.32;42.77;97371.66;5007806;28;20050;-61
2022/03/22 06:03:04;;;;;;;12.35;6.65;;;4.10;42.30;;;2.35;42.59;97365.41;4955964;28;20035;-61
2022/03/22 06:05:30;;;;;;;13.13;6.45;;;4.10;42.50;;;2.36;42.53;97372.28;4971438;28;20525;-62
2022/03/22 06:07:57;;;;;;;10.05;6.45;;;4.20;42.30;;;2.37;43.05;97372.16;4967486;28;20524;-61
2022/03/22 06:10:22;;;;;;;9.93;5.95;;;4.20;42.60;;;2.40;43.07;97371.94;4987145;28;20045;-61
2022/03/22 06:12:54;;;;;;;11.57;7.05;;;4.20;43.10;;;2.47;44.28;97373.16;4971733;28;20391;-61
2022/03/22 06:15:22;;;;;;;11.48;6.35;;;4.40;42.70;;;2.54;43.95;97376.19;4955835;28;20031;-61
2022/03/22 06:17:50;;;;;;;8.88;6.10;;;4.60;42.60;;;2.61;43.53;97376.56;4971470;28;20054;-62
2022/03/22 06:20:20;;;;;;;14.85;6.43;;;4.80;41.80;;;2.68;43.69;97375.19;4974719;28;20506;-61
2022/03/22 06:22:46;;;;;;;11.27;6.40;;;5.00;41.40;;;2.79;43.22;97375.28;4971357;28;20034;-61
2022/03/22 06:25:13;;;;;;;11.70;6.45;;;5.20;41.50;;;2.88;43.54;97373.78;4973955;28;20035;-61
2022/03/22 06:27:39;;;;;;;13.13;6.28;;;5.40;40.80;;;2.98;43.02;97374.78;4966635;28;20638;-61
2022/03/22 06:30:06;;;;;;;9.45;6.15;;;5.50;40.30;;;3.10;43.10;97386.88;4982801;28;20093;-61
2022/03/22 06:32:38;;;;;;;9.93;6.60;;;5.60;40.40;;;3.23;43.06;97386.84;4963886;28;20453;-62
2022/03/22 06:35:05;;;;;;;13.75;6.43;;;5.80;40.20;;;3.36;42.69;97384.97;4986620;28;20410;-60
2022/03/22 06:37:30;;;;;;;11.13;6.15;;;6.00;39.60;;;3.50;42.84;97387.41;4978598;28;20033;-61
2022/03/22 06:39:56;;;;;;;10.77;6.28;;;6.00;39.00;;;3.62;42.66;97385.66;4985205;28;20022;-62
2022/03/22 06:42:22;;;;;;;11.68;6.43;;;6.30;38.40;;;3.75;42.57;97388.19;4970490;28;20031;-62
2022/03/22 06:44:49;;;;;;;12.35;6.55;;;6.50;38.20;;;3.88;42.18;97381.13;4988305;28;20088;-61
2022/03/22 06:47:14;;;;;;;11.38;6.75;;;6.60;37.40;;;4.04;41.79;97389.41;4972217;28;20023;-61
2022/03/22 06:49:41;;;;;;;9.60;6.63;;;6.80;37.00;;;4.17;41.75;97391.91;4955034;28;20042;-62
2022/03/22 06:52:06;;;;;;;12.10;6.45;;;7.00;36.90;;;4.32;41.73;97400.34;4939026;28;20026;-62
2022/03/22 06:54:32;;;;;;;10.95;6.40;;;7.10;36.00;;;4.47;41.78;97399.13;4959600;28;20027;-62
2022/03/22 06:56:58;;;;;;;10.68;6.72;;;7.40;35.90;;;4.64;41.34;97393.44;4981492;28;20459;-62
2022/03/22 06:59:26;;;;;;;10.80;6.28;;;7.60;35.60;;;4.82;40.75;97394.59;4990350;28;20054;-62
2022/03/22 07:01:52;;;;;;;14.35;6.32;;;7.90;35.30;;;5.04;41.34;97398.94;4990118;28;20102;-62
2022/03/22 07:04:17;;;;;;;11.32;6.43;;;8.40;35.00;;;5.25;40.56;97396.41;4990035;28;20033;-62
2022/03/22 07:06:46;;;;;;;11.05;6.72;;;8.60;33.90;;;5.46;40.34;97399.03;4973726;28;20038;-62
2022/03/22 07:09:12;;;;;;;13.70;6.63;;;9.00;33.10;;;5.66;40.67;97407.81;4988665;28;20121;-62
2022/03/22 07:11:49;;;;;;;12.15;6.88;;;9.20;32.60;;;5.92;40.22;97395.28;4986729;28;20030;-62
2022/03/22 07:14:19;;;;;;;10.40;6.70;;;9.60;32.70;;;6.19;38.92;97399.97;4971761;28;20031;-62
2022/03/22 07:16:47;;;;;;;7.40;5.88;;;10.00;31.80;;;6.41;39.53;97397.19;4938210;28;20127;-62
2022/03/22 07:19:16;;;;;;;12.60;7.30;;;10.30;31.40;;;6.67;38.07;97397.56;4954197;28;20110;-62
2022/03/22 07:21:44;;;;;;;8.57;6.63;;;10.60;30.40;;;6.92;38.63;97398.84;4954797;28;20022;-62
2022/03/22 07:24:11;;;;;;;10.27;6.47;;;11.00;30.30;;;7.17;37.73;97398.34;4951722;28;20045;-62
2022/03/22 07:26:37;;;;;;;9.13;6.45;;;11.30;29.70;;;7.41;37.75;97392.72;4970296;28;20042;-62
2022/03/22 07:29:03;;;;;;;8.73;6.65;;;11.60;29.30;;;7.65;37.01;97405.41;4985910;28;20038;-62
2022/03/22 07:31:29;;;;;;;13.10;6.95;;;12.00;28.80;;;7.89;37.15;97397.09;4989855;28;20599;-62
2022/03/22 07:33:55;;;;;;;7.90;6.25;;;12.20;28.40;;;8.13;36.56;97388.78;4989418;28;20026;-62
2022/03/22 07:36:22;;;;;;;8.13;6.43;;;12.60;27.80;;;8.38;35.77;97396.06;4973268;28;20039;-62
2022/03/22 07:38:47;;;;;;;9.63;6.43;;;13.10;27.10;;;8.65;35.21;97389.19;4969120;28;20109;-62
2022/03/22 07:41:14;;;;;;;7.30;6.05;;;13.50;26.10;;;8.89;35.47;97392.94;4967705;28;20031;-62
2022/03/22 07:43:42;;;;;;;9.75;6.50;;;13.90;26.10;;;9.15;35.46;97400.94;4970266;28;20034;-62
2022/03/22 07:46:08;;;;;;;9.93;6.78;;;14.20;26.60;;;9.38;35.37;97392.63;4969610;28;20031;-62
2022/03/22 07:48:34;;;;;;;9.23;6.45;;;14.50;25.90;;;9.59;34.35;97393.16;4986347;28;20050;-62
2022/03/22 07:53:44;;;;;;;7.82;6.15;;;15.10;25.70;;;10.12;34.18;97386.97;4978022;28;20231;-62
2022/03/22 07:56:11;;;;;;;15.77;6.38;;;15.50;25.10;;;10.42;35.46;97391.81;4970979;28;20062;-62
2022/03/22 07:58:37;;;;;;;9.48;6.10;;;16.00;24.90;;;10.69;34.48;97396.06;4969988;28;20042;-62
2022/03/22 08:01:02;;;;;;;8.38;6.57;;;16.50;24.20;;;10.97;34.18;97398.47;4969154;28;20031;-62
2022/03/22 08:03:28;;;;;;;11.45;6.88;;;16.60;23.80;;;11.19;33.66;97395.22;4969908;28;20121;-63
2022/03/22 08:05:54;;;;;;;10.85;6.82;;;16.90;23.50;;;11.40;33.43;97404.50;4983426;28;20073;-62
2022/03/22 08:08:20;;;;;;;7.88;6.35;;;17.10;23.50;;;11.71;32.80;97407.31;4953736;28;20031;-63
2022/03/22 08:10:47;;;;;;;11.27;6.72;;;17.40;23.50;;;11.95;33.19;97396.81;4969714;28;20031;-62
2022/03/22 08:13:13;;;;;;;9.48;6.97;;;17.70;23.20;;;12.27;32.89;97393.34;4969325;28;20232;-62
2022/03/22 08:15:39;;;;;;;9.15;7.03;;;18.20;23.00;;;12.62;32.59;97393.91;4969503;28;20046;-62
2022/03/22 08:18:05;;;;;;;8.88;6.45;;;18.60;22.60;;;12.81;31.74;97391.69;4974988;28;20034;-62
2022/03/22 08:20:30;;;;;;;8.70;6.60;;;18.60;22.40;;;13.10;31.86;97391.06;4972819;28;20478;-63
2022/03/22 08:23:04;;;;;;;12.20;7.20;;;19.00;22.60;;;13.43;31.43;97390.91;4972459;28;20058;-62
2022/03/22 08:25:40;;;;;;;8.82;6.72;;;19.10;22.10;;;13.74;29.91;97380.28;4956963;28;20510;-62
2022/03/22 08:28:08;;;;;;;9.98;6.55;;;19.50;21.80;;;14.01;30.17;97390.28;4974727;28;20038;-62
2022/03/22 08:30:34;;;;;;;11.88;6.45;;;19.60;21.50;;;14.25;29.96;97378.66;4996104;28;20515;-63
2022/03/22 08:33:09;;;;;;;9.85;6.88;;;20.00;21.20;;;14.47;30.48;97384.91;4953665;28;20579;-63
2022/03/22 08:35:35;;;;;;;11.93;7.18;;;20.00;21.20;;;14.68;30.83;97385.00;4973979;28;20252;-63
2022/03/22 08:38:02;;;;;;;9.57;6.22;;;20.20;21.40;;;14.95;30.19;97383.56;4992611;28;20030;-63
2022/03/22 08:40:28;;;;;;;10.05;6.43;;;20.50;20.80;;;15.14;28.54;97384.78;4961116;28;20154;-63
2022/03/22 08:42:55;;;;;;;10.65;6.78;;;20.60;20.20;;;15.27;29.27;97382.28;4960183;28;20594;-63
2022/03/22 08:45:22;;;;;;;10.48;7.22;;;20.60;20.40;;;15.49;29.46;97384.97;4960717;28;20031;-63
2022/03/22 08:47:49;;;;;;;10.52;7.65;;;21.00;20.50;;;15.74;28.26;97382.81;4956204;28;20023;-63
2022/03/22 08:50:17;;;;;;;11.35;6.65;;;21.30;20.20;;;15.94;29.13;97378.50;4974985;28;20100;-63
2022/03/22 08:52:43;;;;;;;12.93;6.60;;;21.60;19.70;;;16.18;28.60;97375.44;4976801;28;20049;-62
2022/03/22 08:55:13;;;;;;;9.27;6.90;;;22.00;19.80;;;16.42;27.50;97371.50;4975637;28;20605;-62
2022/03/22 08:57:39;;;;;;;12.85;7.13;;;22.00;19.70;;;16.71;27.71;97369.66;4989183;28;20030;-63
2022/03/22 09:00:08;;;;;;;8.20;6.78;;;22.30;19.20;;;16.94;27.12;97375.50;4957018;28;20032;-63
2022/03/22 09:02:35;;;;;;;10.35;6.90;;;22.40;18.90;;;17.17;27.32;97371.69;4970896;28;20402;-63
2022/03/22 09:07:47;;;;;;;9.65;6.38;;;23.00;18.90;;;17.66;27.56;97372.25;4959458;28;20117;-63
2022/03/22 09:10:14;;;;;;;9.98;7.15;;;23.20;18.70;;;17.87;26.57;97365.13;4988976;28;20039;-63
2022/03/22 09:12:41;;;;;;;10.88;7.25;;;23.20;18.40;;;18.15;25.98;97371.09;4981401;28;20022;-63
2022/03/22 09:15:09;;;;;;;9.10;6.60;;;23.40;18.30;;;18.36;25.61;97364.72;4982534;28;20041;-63
2022/03/22 09:17:35;;;;;;;9.38;6.53;;;23.70;18.00;;;18.57;26.16;97361.81;4925638;28;20081;-63
2022/03/22 09:20:01;;;;;;;10.02;6.95;;;23.90;17.80;;;18.83;25.14;97366.28;4972660;28;20030;-63
2022/03/22 09:22:27;;;;;;;10.30;7.85;;;24.10;17.90;;;19.04;25.66;97362.53;4956817;28;20027;-63
2022/03/22 09:24:53;;;;;;;11.60;9.23;;;24.30;17.40;;;19.16;24.98;97366.16;4973478;28;20026;-63
2022/03/22 09:27:19;;;;;;;11.50;8.45;;;24.20;17.50;;;19.39;25.32;97364.81;4969095;28;20057;-61
2022/03/22 09:29:44;;;;;;;12.65;9.40;;;24.50;17.80;;;19.60;25.16;97366.38;4987630;28;20054;-61
2022/03/22 09:32:10;;;;;;;8.07;6.55;;;24.50;17.40;;;19.78;24.77;97363.78;4983635;28;20072;-61
2022/03/22 09:34:36;;;;;;;9.88;6.07;;;24.60;17.40;;;19.96;24.64;97365.72;4993074;28;20104;-61
2022/03/22 09:37:02;;;;;;;9.40;6.88;;;24.60;16.90;;;20.10;24.55;97360.03;4973742;28;20451;-61
2022/03/22 09:39:27;;;;;;;8.95;6.68;;;24.90;17.30;;;20.19;23.51;97357.94;4987177;28;20090;-61
2022/03/22 09:41:56;;;;;;;9.80;6.47;;;25.00;16.80;;;20.34;23.53;97352.22;4967440;28;20031;-61
2022/03/22 09:44:22;;;;;;;8.43;6.13;;;25.30;16.90;;;20.52;23.46;97360.31;4956324;28;20657;-61
2022/03/22 09:46:49;;;;;;;10.82;6.90;;;25.70;16.80;;;20.70;23.46;97354.97;4971983;28;20105;-62
2022/03/22 09:49:16;;;;;;;12.13;6.50;;;26.20;15.90;;;20.79;22.75;97350.13;4956002;28;20466;-61
2022/03/22 09:51:47;;;;;;;7.07;6.25;;;26.40;15.70;;;20.93;22.82;97345.47;4980134;28;20521;-62
2022/03/22 09:54:16;;;;;;;7.60;5.75;;;26.80;15.60;;;21.06;22.61;97348.00;4989234;28;20410;-61
2022/03/22 09:56:43;;;;;;;8.33;6.23;;;27.10;15.30;;;21.23;22.89;97343.63;4944100;28;20081;-61
2022/03/22 09:59:09;;;;;;;9.93;5.95;;;27.60;15.40;;;21.40;22.21;97341.19;4974947;28;20285;-61
2022/03/22 10:01:36;;;;;;;8.75;5.85;;;28.20;14.50;;;21.68;22.55;97343.25;4974253;28;20299;-61
2022/03/22 10:04:04;;;;;;;8.73;5.97;;;28.70;14.10;;;22.08;21.77;97340.81;4955541;28;20027;-62
2022/03/22 10:06:30;;;;;;;9.20;6.40;;;29.70;13.30;;;22.49;22.28;97337.19;4971478;28;20031;-62
2022/03/22 10:08:56;;;;;;;10.10;6.18;;;30.10;13.00;;;23.00;22.33;97338.31;4971534;28;20041;-62
2022/03/22 10:11:22;;;;;;;9.45;6.18;;;30.90;12.90;;;23.65;22.68;97337.97;4971606;28;20031;-62
2022/03/22 10:13:53;;;;;;;11.13;5.78;;;31.80;12.70;;;24.27;20.03;97345.19;4974128;28;20522;-62
2022/03/22 10:16:19;;;;;;;7.32;5.55;;;32.50;12.10;;;24.99;21.80;97345.16;4974660;28;20069;-62
2022/03/22 10:18:45;;;;;;;9.57;5.93;;;33.40;11.40;;;25.59;20.74;97338.84;4974896;28;20030;-62
2022/03/22 10:21:10;;;;;;;9.30;6.32;;;33.70;11.30;;;26.21;20.83;97332.91;4974407;28;20038;-63
2022/03/22 10:23:56;;;;;;;8.82;5.63;;;34.50;10.70;;;26.82;17.95;97328.75;4974883;28;20097;-62
2022/03/22 10:26:33;;;;;;;10.27;6.22;;;34.80;10.60;;;27.31;17.33;97331.13;4990847;28;20053;-62
2022/03/22 10:28:59;;;;;;;9.82;6.00;;;35.50;10.20;;;27.71;20.09;97326.91;4974172;28;20026;-62
2022/03/22 10:31:33;;;;;;;8.50;5.38;;;35.40;9.90;;;28.06;17.42;97331.53;4996030;28;20031;-62
2022/03/22 10:33:59;;;;;;;6.35;5.65;;;35.70;10.40;;;28.46;18.97;97330.72;4939610;28;20039;-62
2022/03/22 10:36:25;;;;;;;7.57;5.50;;;36.00;10.00;;;28.76;18.72;97326.31;4939216;28;20055;-62
2022/03/22 10:38:59;;;;;;;8.02;5.32;;;36.10;9.50;;;29.10;16.33;97319.16;4971610;28;20035;-62
2022/03/22 10:41:30;;;;;;;7.25;5.28;;;36.50;9.70;;;29.47;16.58;97317.94;4947550;28;20047;-62
2022/03/22 10:44:11;;;;;;;6.20;5.10;;;36.40;9.90;;;29.87;15.57;97316.81;4963537;28;20026;-62
2022/03/22 10:46:38;;;;;;;5.75;4.93;;;36.60;9.50;;;30.29;17.22;97310.81;4974635;28;20034;-62
2022/03/22 10:49:08;;;;;;;5.63;4.82;;;37.00;9.60;;;30.66;15.78;97309.38;4973393;28;20537;-62
2022/03/22 10:51:35;;;;;;;7.70;5.15;;;37.40;9.30;;;31.02;16.35;97310.59;4986700;28;20046;-63